Time;durP1;ratioP1;P1;durP2;ratioP2;P2;SDS_P1;SDS_P2;PMS_P1;PMS_P2;Temp;Humidity;BMP_temperature;BMP_pressure;BME280_temperature;BME280_humidity;BME280_pressure;Samples;Min_cycle;Max_cycle;Signal;HPM_P1;HPM_P2
2021/06/21 00:00:33;;;;;;;11.25;4.63;;;;;;;17.32;70.16;93659.50;5088642;28;20096;-76
2021/06/21 00:02:59;;;;;;;12.20;5.38;;;;;;;17.31;70.68;93655.25;5089916;28;20059;-75
2021/06/21 00:05:24;;;;;;;5.53;3.95;;;;;;;17.27;70.64;93657.91;5089660;28;20044;-76
2021/06/21 00:07:50;;;;;;;10.77;4.45;;;;;;;17.21;70.44;93645.88;5089854;28;20088;-76
2021/06/21 00:10:17;;;;;;;5.57;3.67;;;;;;;17.20;70.74;93647.78;5090179;28;20028;-76
2021/06/21 00:12:44;;;;;;;7.28;4.50;;;;;;;17.17;70.81;93636.94;5088440;28;20435;-75
2021/06/21 00:15:12;;;;;;;8.63;4.40;;;;;;;17.17;70.59;93642.34;5104379;28;20595;-76
2021/06/21 00:17:37;;;;;;;8.15;4.40;;;;;;;17.14;70.75;93640.38;5106874;28;20031;-75
2021/06/21 00:20:04;;;;;;;10.13;4.03;;;;;;;17.14;70.38;93637.69;5092450;28;20020;-75
2021/06/21 00:22:30;;;;;;;9.00;4.28;;;;;;;17.16;70.31;93635.41;5093448;28;20025;-75
2021/06/21 00:24:55;;;;;;;9.82;4.72;;;;;;;17.13;70.78;93638.81;5093758;28;20020;-75
2021/06/21 00:27:24;;;;;;;8.23;4.95;;;;;;;17.10;71.32;93631.47;5093578;28;20425;-75
2021/06/21 00:29:50;;;;;;;6.60;4.63;;;;;;;17.07;71.28;93629.47;5093616;28;20027;-75
2021/06/21 00:32:15;;;;;;;8.45;4.97;;;;;;;17.01;71.54;93620.91;5104577;28;20102;-75
2021/06/21 00:34:41;;;;;;;6.70;3.78;;;;;;;16.99;71.37;93621.25;5093371;28;20066;-76
2021/06/21 00:37:07;;;;;;;9.70;4.65;;;;;;;16.98;71.68;93624.34;5103679;28;20072;-76
2021/06/21 00:39:32;;;;;;;9.15;4.45;;;;;;;16.95;71.32;93614.28;5113493;28;20043;-75
2021/06/21 00:41:58;;;;;;;8.68;4.43;;;;;;;16.91;71.44;93611.50;5113642;28;20391;-75
2021/06/21 00:44:23;;;;;;;6.20;4.22;;;;;;;16.88;71.63;93601.47;5111235;28;20072;-75
2021/06/21 00:46:48;;;;;;;6.25;4.00;;;;;;;16.87;71.56;93607.22;5091969;28;20482;-76
2021/06/21 00:49:14;;;;;;;5.65;4.15;;;;;;;16.85;71.48;93610.25;5092034;28;20028;-75
2021/06/21 00:51:39;;;;;;;11.82;3.92;;;;;;;16.84;70.85;93609.47;5093339;28;20032;-75
2021/06/21 00:54:05;;;;;;;8.15;3.42;;;;;;;16.85;70.90;93615.63;5092896;28;20118;-75
2021/06/21 00:56:30;;;;;;;7.70;3.85;;;;;;;16.76;71.14;93615.06;5091454;28;20093;-76
2021/06/21 00:59:01;;;;;;;4.93;3.38;;;;;;;16.77;71.01;93614.72;5093071;28;20031;-75
2021/06/21 01:01:28;;;;;;;4.53;3.30;;;;;;;16.75;71.00;93613.50;5092860;28;20031;-75
2021/06/21 01:03:53;;;;;;;11.27;3.28;;;;;;;16.76;70.86;93618.53;5092910;28;20484;-75
2021/06/21 01:06:19;;;;;;;7.63;3.00;;;;;;;16.76;70.87;93631.22;5092724;28;20042;-75
2021/06/21 01:08:45;;;;;;;5.55;3.08;;;;;;;16.72;70.60;93628.47;5092781;28;20188;-75
2021/06/21 01:11:11;;;;;;;5.00;3.28;;;;;;;16.73;70.52;93623.84;5092796;28;20024;-75
2021/06/21 01:13:58;;;;;;;6.40;2.83;;;;;;;16.69;70.54;93626.50;5092337;28;20063;-75
2021/06/21 01:16:30;;;;;;;6.05;2.70;;;;;;;16.63;70.50;93628.69;5092675;28;20036;-75
2021/06/21 01:19:11;;;;;;;6.47;2.95;;;;;;;16.60;70.62;93626.72;5092716;28;20023;-75
2021/06/21 01:21:58;;;;;;;7.90;3.03;;;;;;;16.55;70.88;93627.00;5092470;28;20043;-75
2021/06/21 01:25:00;;;;;;;5.68;3.22;;;;;;;16.52;71.05;93618.88;5090971;28;20024;-74
2021/06/21 01:27:48;;;;;;;5.38;2.78;;;;;;;16.48;71.18;93618.03;5099949;28;20019;-74
2021/06/21 01:30:18;;;;;;;6.03;3.47;;;;;;;16.44;71.15;93621.44;5112791;28;20031;-74
2021/06/21 01:32:50;;;;;;;6.07;3.10;;;;;;;16.43;71.64;93619.88;5112574;28;20047;-74
2021/06/21 01:35:20;;;;;;;6.22;3.22;;;;;;;16.42;71.41;93620.22;5111393;28;20051;-74
2021/06/21 01:37:47;;;;;;;5.50;3.50;;;;;;;16.42;71.46;93620.22;5113504;28;20044;-74
2021/06/21 01:40:17;;;;;;;3.88;2.67;;;;;;;16.39;71.29;93620.94;5112537;28;20479;-74
2021/06/21 01:42:46;;;;;;;4.50;2.90;;;;;;;16.34;71.22;93619.28;5098005;28;20023;-74
2021/06/21 01:45:12;;;;;;;16.17;3.25;;;;;;;16.33;71.41;93623.13;5110893;28;20020;-75
2021/06/21 01:47:41;;;;;;;5.80;3.00;;;;;;;16.33;71.10;93633.13;5111375;28;20201;-76
2021/06/21 01:50:09;;;;;;;7.40;3.97;;;;;;;16.29;71.41;93635.72;5097172;28;20118;-76
2021/06/21 01:52:40;;;;;;;3.85;3.03;;;;;;;16.23;71.75;93635.22;5091734;28;20036;-76
2021/06/21 01:55:08;;;;;;;5.88;3.47;;;;;;;16.20;71.69;93638.63;5090668;28;20024;-76
2021/06/21 01:57:36;;;;;;;10.55;3.28;;;;;;;16.17;71.73;93630.50;5090310;28;20088;-76
2021/06/21 02:00:08;;;;;;;9.43;3.63;;;;;;;16.13;71.77;93635.78;5090730;28;20035;-76
2021/06/21 02:02:35;;;;;;;13.00;3.90;;;;;;;16.13;71.69;93635.03;5096107;28;20458;-76
2021/06/21 02:05:02;;;;;;;5.32;3.97;;;;;;;16.10;71.93;93630.34;5099353;28;20020;-76
2021/06/21 02:07:29;;;;;;;11.77;3.70;;;;;;;16.03;72.27;93622.91;5111928;28;20406;-76
2021/06/21 02:09:55;;;;;;;12.60;3.83;;;;;;;16.00;72.32;93621.72;5095174;28;20027;-76
2021/06/21 02:12:24;;;;;;;5.25;3.92;;;;;;;15.99;72.46;93624.75;5107475;27;20034;-76
2021/06/21 02:14:51;;;;;;;8.70;4.03;;;;;;;15.98;72.21;93625.91;5110488;28;20126;-76
2021/06/21 02:17:22;;;;;;;4.65;3.35;;;;;;;15.97;72.12;93632.38;5091822;28;20102;-76
2021/06/21 02:19:51;;;;;;;6.70;3.50;;;;;;;15.95;72.10;93640.78;5103592;28;20118;-76
2021/06/21 02:22:20;;;;;;;5.55;3.83;;;;;;;15.95;71.99;93645.41;5102622;28;20400;-76
2021/06/21 02:24:46;;;;;;;8.05;3.50;;;;;;;15.94;71.99;93654.59;5099698;28;20035;-76
2021/06/21 02:27:12;;;;;;;7.47;3.70;;;;;;;15.91;72.19;93645.31;5091587;28;20063;-76
2021/06/21 02:29:38;;;;;;;9.07;4.10;;;;;;;15.89;72.78;93636.81;5091229;28;20020;-76
2021/06/21 02:32:05;;;;;;;10.43;4.32;;;;;;;15.87;72.86;93635.63;5091166;28;20020;-76
2021/06/21 02:34:31;;;;;;;5.88;4.05;;;;;;;15.81;72.91;93640.50;5090005;28;20034;-76
2021/06/21 02:36:56;;;;;;;9.73;4.40;;;;;;;15.78;72.87;93633.91;5096109;28;20028;-76
2021/06/21 02:39:22;;;;;;;5.60;3.80;;;;;;;15.78;72.53;93631.22;5111298;28;20502;-76
2021/06/21 02:41:47;;;;;;;8.75;3.72;;;;;;;15.79;72.72;93632.81;5110033;28;20031;-77
2021/06/21 02:44:13;;;;;;;15.20;5.15;;;;;;;15.76;72.76;93638.88;5111406;28;20019;-77
2021/06/21 02:46:38;;;;;;;11.27;3.53;;;;;;;15.74;72.06;93640.34;5091834;28;20036;-76
2021/06/21 02:49:04;;;;;;;8.68;3.40;;;;;;;15.69;71.94;93633.28;5090822;28;20032;-76
2021/06/21 02:51:43;;;;;;;6.93;3.40;;;;;;;15.65;72.26;93641.28;5101599;28;20493;-76
2021/06/21 02:54:31;;;;;;;5.07;3.53;;;;;;;15.62;72.51;93639.28;5111136;28;20030;-75
2021/06/21 02:57:08;;;;;;;4.40;3.53;;;;;;;15.62;72.66;93633.16;5111039;28;20116;-75
2021/06/21 02:59:38;;;;;;;5.70;3.17;;;;;;;15.63;72.63;93621.25;5108275;28;20501;-76
2021/06/21 03:02:06;;;;;;;7.25;4.15;;;;;;;15.61;72.76;93607.41;5094850;28;20098;-76
2021/06/21 03:04:33;;;;;;;4.78;3.03;;;;;;;15.63;72.74;93613.19;5089270;28;20020;-76
2021/06/21 03:07:01;;;;;;;7.15;3.70;;;;;;;15.66;72.65;93617.88;5096286;28;20028;-75
2021/06/21 03:09:27;;;;;;;10.18;4.15;;;;;;;15.67;72.54;93611.38;5111003;28;20031;-75
2021/06/21 03:11:54;;;;;;;5.63;2.80;;;;;;;15.71;72.66;93609.53;5110659;28;20023;-75
2021/06/21 03:14:26;;;;;;;5.55;3.10;;;;;;;15.72;72.78;93619.19;5110613;27;20093;-75
2021/06/21 03:16:54;;;;;;;6.40;3.13;;;;;;;15.77;72.66;93616.25;5109461;28;20035;-76
2021/06/21 03:19:20;;;;;;;6.28;3.30;;;;;;;15.81;72.35;93621.69;5095797;28;20080;-76
2021/06/21 03:21:46;;;;;;;10.93;4.15;;;;;;;15.81;72.50;93614.41;5104756;28;20106;-75
2021/06/21 03:24:14;;;;;;;6.55;3.78;;;;;;;15.83;72.15;93617.53;5109313;28;20104;-76
2021/06/21 03:26:42;;;;;;;9.13;3.33;;;;;;;15.83;72.17;93619.41;5109242;28;20084;-76
2021/06/21 03:29:18;;;;;;;8.23;3.42;;;;;;;15.83;72.20;93622.91;5109372;28;20024;-75
2021/06/21 03:31:46;;;;;;;4.93;3.78;;;;;;;15.83;72.32;93622.91;5126428;27;20112;-75
2021/06/21 03:34:12;;;;;;;6.97;3.63;;;;;;;15.86;72.27;93631.41;5109357;28;20028;-76
2021/06/21 03:36:38;;;;;;;6.05;4.05;;;;;;;15.89;72.30;93625.31;5110551;28;20035;-76
2021/06/21 03:39:04;;;;;;;11.98;3.70;;;;;;;15.91;72.05;93626.50;5110180;28;20028;-76
2021/06/21 03:41:30;;;;;;;6.22;3.35;;;;;;;15.95;72.23;93630.03;5110514;28;20038;-76
2021/06/21 03:43:55;;;;;;;5.15;2.95;;;;;;;15.92;72.17;93624.63;5109085;28;20023;-75
2021/06/21 03:46:21;;;;;;;11.77;3.97;;;;;;;15.93;72.17;93620.78;5096975;28;20024;-75
2021/06/21 03:48:46;;;;;;;5.72;3.60;;;;;;;15.98;72.06;93615.13;5089455;28;20496;-75
2021/06/21 03:51:11;;;;;;;4.72;3.30;;;;;;;16.03;72.05;93614.84;5094484;28;20024;-75
2021/06/21 03:53:37;;;;;;;6.80;3.55;;;;;;;16.06;72.42;93622.22;5094067;28;20469;-75
2021/06/21 03:56:02;;;;;;;12.48;3.88;;;;;;;16.10;72.20;93617.69;5094000;28;20077;-76
2021/06/21 03:58:29;;;;;;;6.60;3.50;;;;;;;16.15;72.05;93628.16;5094128;28;20069;-76
2021/06/21 04:00:54;;;;;;;5.10;3.75;;;;;;;16.24;71.72;93623.34;5112498;28;20098;-76
2021/06/21 04:03:20;;;;;;;4.88;3.58;;;;;;;16.36;71.68;93635.84;5106539;28;20078;-76
2021/06/21 04:05:45;;;;;;;11.70;6.43;;;;;;;16.39;71.23;93634.38;5098433;28;20054;-76
2021/06/21 04:08:12;;;;;;;9.25;4.63;;;;;;;16.41;71.57;93643.66;5092506;28;20406;-76
2021/06/21 04:10:39;;;;;;;6.43;4.70;;;;;;;16.45;71.80;93635.66;5092651;28;20054;-76
2021/06/21 04:13:06;;;;;;;6.57;4.95;;;;;;;16.51;72.30;93645.00;5093461;28;20063;-76
2021/06/21 04:15:31;;;;;;;12.05;5.68;;;;;;;16.56;72.76;93642.00;5103232;28;20079;-76
2021/06/21 04:17:58;;;;;;;10.88;6.38;;;;;;;16.60;73.56;93632.09;5113865;28;20106;-76
2021/06/21 04:20:25;;;;;;;12.18;6.25;;;;;;;16.67;73.37;93636.84;5112836;28;20022;-76
2021/06/21 04:22:51;;;;;;;12.60;7.55;;;;;;;16.70;73.43;93640.72;5109334;28;20032;-76
2021/06/21 04:25:17;;;;;;;14.70;7.90;;;;;;;16.76;73.49;93642.00;5092438;28;20424;-76
2021/06/21 04:27:43;;;;;;;10.85;6.53;;;;;;;16.84;73.44;93635.63;5092487;28;20051;-75
2021/06/21 04:30:11;;;;;;;14.65;6.28;;;;;;;16.96;73.50;93634.69;5093647;28;20028;-75
2021/06/21 04:32:37;;;;;;;11.70;6.30;;;;;;;17.10;73.06;93636.84;5093561;28;20028;-75
2021/06/21 04:35:04;;;;;;;16.73;6.95;;;;;;;17.17;72.94;93642.34;5091755;28;20027;-76
2021/06/21 04:37:29;;;;;;;11.02;6.97;;;;;;;17.27;72.66;93652.50;5093507;28;20457;-75
2021/06/21 04:39:55;;;;;;;12.82;6.55;;;;;;;17.38;72.28;93663.44;5097981;28;20061;-75
2021/06/21 04:42:21;;;;;;;16.70;7.22;;;;;;;17.50;71.64;93649.00;5113565;28;20031;-76
2021/06/21 04:44:46;;;;;;;13.82;7.15;;;;;;;17.56;70.71;93645.63;5113573;28;20019;-76
2021/06/21 04:47:12;;;;;;;10.45;6.10;;;;;;;17.65;69.86;93650.78;5113673;28;20444;-76
2021/06/21 04:49:37;;;;;;;10.82;6.68;;;;;;;17.69;69.90;93661.59;5113523;28;20369;-74
2021/06/21 04:52:06;;;;;;;9.27;6.75;;;;;;;17.76;70.07;93659.03;5112885;28;20030;-74
2021/06/21 04:54:31;;;;;;;11.18;6.82;;;;;;;17.83;70.50;93659.94;5090083;28;20020;-74
2021/06/21 04:56:57;;;;;;;24.20;7.13;;;;;;;17.92;69.62;93656.97;5093179;28;20027;-75
2021/06/21 04:59:22;;;;;;;14.38;7.35;;;;;;;18.02;69.91;93669.06;5092246;28;20043;-75
2021/06/21 05:01:47;;;;;;;18.20;6.85;;;;;;;18.08;69.64;93673.00;5107039;28;20099;-75
2021/06/21 05:04:13;;;;;;;11.23;7.70;;;;;;;18.12;69.15;93675.75;5113246;28;20034;-75
2021/06/21 05:06:39;;;;;;;13.68;8.85;;;;;;;18.21;68.92;93670.84;5113314;28;20042;-75
2021/06/21 05:09:06;;;;;;;13.65;7.25;;;;;;;18.25;68.96;93677.81;5113084;27;20034;-75
2021/06/21 05:11:32;;;;;;;19.65;9.27;;;;;;;18.24;68.86;93676.28;5113009;28;20030;-74
2021/06/21 05:13:58;;;;;;;11.63;7.72;;;;;;;18.29;68.78;93677.13;5112552;27;20070;-73
2021/06/21 05:16:23;;;;;;;12.48;7.75;;;;;;;18.31;68.54;93669.44;5112572;28;20035;-74
2021/06/21 05:18:49;;;;;;;11.40;7.45;;;;;;;18.39;68.69;93676.47;5112935;28;20027;-74
2021/06/21 05:21:14;;;;;;;16.23;8.77;;;;;;;18.45;68.98;93681.16;5112939;28;20055;-74
2021/06/21 05:23:39;;;;;;;19.45;7.97;;;;;;;18.53;68.34;93671.25;5111697;28;20051;-74
2021/06/21 05:26:05;;;;;;;17.48;7.85;;;;;;;18.67;68.28;93677.97;5112844;28;20409;-74
2021/06/21 05:28:31;;;;;;;12.75;7.82;;;;;;;18.77;68.62;93674.59;5109357;28;20073;-74
2021/06/21 05:30:56;;;;;;;21.88;8.18;;;;;;;18.88;68.34;93690.94;5092299;28;20028;-74
2021/06/21 05:33:22;;;;;;;15.13;7.72;;;;;;;18.97;67.54;93684.09;5092135;28;20075;-76
2021/06/21 05:35:47;;;;;;;14.32;8.90;;;;;;;19.03;67.16;93685.31;5104692;28;20549;-75
2021/06/21 05:38:12;;;;;;;13.95;8.82;;;;;;;19.02;66.72;93691.09;5096906;28;20036;-75
2021/06/21 05:40:38;;;;;;;21.08;9.35;;;;;;;19.04;66.73;93694.19;5093130;28;20484;-75
2021/06/21 05:43:03;;;;;;;14.45;8.00;;;;;;;19.07;66.71;93698.06;5101367;28;20024;-75
2021/06/21 05:45:29;;;;;;;13.07;8.30;;;;;;;19.16;66.30;93693.16;5108764;28;20023;-75
2021/06/21 05:47:54;;;;;;;12.57;7.82;;;;;;;19.17;65.62;93692.81;5112431;28;20026;-75
2021/06/21 05:50:19;;;;;;;12.68;7.93;;;;;;;19.24;65.81;93697.50;5112394;28;20028;-76
2021/06/21 05:52:49;;;;;;;11.07;7.30;;;;;;;19.32;66.16;93692.94;5091749;28;21560;-77
2021/06/21 05:55:15;;;;;;;15.55;7.93;;;;;;;19.43;65.87;93696.50;5093460;28;20145;-79
2021/06/21 05:57:40;;;;;;;14.85;8.15;;;;;;;19.43;64.10;93694.56;5090470;28;20052;-78
2021/06/21 06:00:06;;;;;;;12.38;7.38;;;;;;;19.51;64.31;93687.28;5101195;28;20106;-78
2021/06/21 06:02:32;;;;;;;10.07;7.40;;;;;;;19.62;63.68;93692.78;5106340;28;20027;-76
2021/06/21 06:04:57;;;;;;;14.30;7.63;;;;;;;19.70;64.38;93680.91;5111956;28;20030;-77
2021/06/21 06:07:24;;;;;;;17.58;6.82;;;;;;;19.78;63.74;93679.81;5127710;27;20440;-77
2021/06/21 06:09:50;;;;;;;12.93;7.05;;;;;;;19.90;62.59;93670.63;5111933;28;20027;-75
2021/06/21 06:12:17;;;;;;;18.02;7.10;;;;;;;19.94;61.47;93678.75;5110840;28;20027;-76
2021/06/21 06:14:42;;;;;;;17.45;7.57;;;;;;;19.89;61.71;93681.81;5093249;28;20055;-76
2021/06/21 06:17:08;;;;;;;16.95;7.68;;;;;;;19.84;61.92;93677.53;5091194;28;20099;-76
2021/06/21 06:19:33;;;;;;;13.40;7.45;;;;;;;19.84;62.55;93686.44;5107696;28;20076;-76
2021/06/21 06:21:59;;;;;;;9.23;6.63;;;;;;;19.91;62.99;93674.13;5111286;28;20023;-77
2021/06/21 06:24:25;;;;;;;21.02;7.38;;;;;;;20.00;62.59;93675.31;5110423;28;20020;-77
2021/06/21 06:26:51;;;;;;;10.82;6.35;;;;;;;20.04;62.61;93678.03;5109822;28;20019;-77
2021/06/21 06:29:16;;;;;;;11.63;7.30;;;;;;;20.12;63.45;93685.06;5107671;28;20475;-77
2021/06/21 06:31:45;;;;;;;18.10;7.05;;;;;;;20.26;63.61;93686.31;5107190;28;20513;-77
2021/06/21 06:34:11;;;;;;;11.52;6.47;;;;;;;20.37;62.12;93690.63;5110790;28;20163;-75
2021/06/21 06:36:37;;;;;;;12.82;7.20;;;;;;;20.47;61.72;93683.69;5109864;28;20042;-70
2021/06/21 06:39:04;;;;;;;16.23;6.53;;;;;;;20.53;61.36;93682.16;5105517;28;20478;-72
2021/06/21 06:41:30;;;;;;;14.45;6.18;;;;;;;20.55;61.11;93684.50;5108529;28;20027;-71
2021/06/21 06:43:55;;;;;;;14.77;5.50;;;;;;;20.63;61.80;93680.69;5095644;28;20043;-74
2021/06/21 06:46:21;;;;;;;20.48;6.05;;;;;;;20.69;61.37;93672.97;5093792;28;20481;-76
2021/06/21 06:48:46;;;;;;;12.75;5.30;;;;;;;20.80;62.34;93680.00;5094064;28;20032;-77
2021/06/21 06:51:12;;;;;;;13.32;6.55;;;;;;;20.90;61.50;93678.44;5108977;28;20019;-76
2021/06/21 06:53:42;;;;;;;12.98;6.25;;;;;;;20.96;60.58;93685.03;5097330;28;20024;-76
2021/06/21 06:58:52;;;;;;;14.10;5.97;;;;;;;21.04;59.78;93678.50;5090721;28;20039;-76
2021/06/21 07:01:17;;;;;;;17.35;5.70;;;;;;;21.09;59.81;93673.88;5095986;28;20035;-77
2021/06/21 07:03:43;;;;;;;10.85;6.20;;;;;;;21.19;58.91;93678.53;5091050;28;20032;-76
2021/06/21 07:06:08;;;;;;;11.73;6.88;;;;;;;21.22;58.40;93666.91;5093881;28;20092;-76
2021/06/21 07:08:34;;;;;;;15.88;6.88;;;;;;;21.14;58.80;93676.19;5095889;28;20110;-77
2021/06/21 07:10:59;;;;;;;15.52;6.97;;;;;;;21.06;59.55;93680.06;5096082;28;20035;-76
2021/06/21 07:13:25;;;;;;;13.90;6.50;;;;;;;21.11;59.97;93676.97;5103535;28;20532;-76
2021/06/21 07:15:50;;;;;;;17.92;6.93;;;;;;;21.11;60.51;93682.41;5107026;28;20019;-77
2021/06/21 07:18:16;;;;;;;13.80;7.60;;;;;;;21.07;61.02;93681.63;5102575;28;20043;-77
2021/06/21 07:20:42;;;;;;;17.98;7.57;;;;;;;21.03;60.44;93679.66;5088449;28;20035;-77
2021/06/21 07:23:07;;;;;;;20.05;8.57;;;;;;;21.04;60.85;93677.72;5089519;28;20036;-76
2021/06/21 07:25:32;;;;;;;17.73;7.40;;;;;;;21.09;60.23;93676.59;5102195;28;20026;-76
2021/06/21 07:27:58;;;;;;;18.00;8.00;;;;;;;21.11;59.91;93679.69;5118789;27;20042;-76
2021/06/21 07:30:24;;;;;;;14.23;7.30;;;;;;;21.09;60.33;93682.78;5088382;28;20468;-76
2021/06/21 07:32:50;;;;;;;26.73;7.65;;;;;;;21.03;61.18;93682.38;5092579;28;20487;-76
2021/06/21 07:35:15;;;;;;;27.20;7.88;;;;;;;21.16;61.59;93684.72;5090028;28;20043;-76
2021/06/21 07:37:41;;;;;;;13.02;8.05;;;;;;;21.31;60.43;93686.31;5089667;28;20027;-76
2021/06/21 07:40:07;;;;;;;16.23;7.82;;;;;;;21.31;61.15;93699.06;5089394;28;20114;-77
2021/06/21 07:42:32;;;;;;;13.23;8.00;;;;;;;21.43;61.01;93691.38;5098602;28;20027;-77
2021/06/21 07:44:58;;;;;;;20.02;8.73;;;;;;;21.49;60.18;93685.56;5096554;28;20019;-77
2021/06/21 07:47:24;;;;;;;20.00;8.68;;;;;;;21.61;60.39;93690.59;5102113;28;20433;-77
2021/06/21 07:49:49;;;;;;;17.42;8.27;;;;;;;21.76;60.13;93686.72;5109920;28;20103;-77
2021/06/21 07:52:14;;;;;;;19.45;8.73;;;;;;;21.83;58.18;93683.25;5108334;28;20019;-76
2021/06/21 07:54:40;;;;;;;18.05;9.07;;;;;;;21.92;59.28;93696.41;5090605;28;20491;-76
2021/06/21 07:57:06;;;;;;;35.53;9.40;;;;;;;21.98;58.90;93690.22;5089545;28;20556;-76
2021/06/21 07:59:31;;;;;;;17.60;7.55;;;;;;;22.10;58.89;93691.72;5090455;28;20019;-76
2021/06/21 08:01:56;;;;;;;17.45;7.95;;;;;;;22.16;59.00;93690.16;5093505;28;20020;-77
2021/06/21 08:04:22;;;;;;;16.27;7.30;;;;;;;22.26;58.85;93682.44;5088126;28;20020;-77
2021/06/21 08:06:48;;;;;;;10.50;7.22;;;;;;;22.41;57.93;93679.28;5088636;28;20032;-76
2021/06/21 08:09:13;;;;;;;14.05;7.60;;;;;;;22.59;57.33;93681.94;5089732;28;20042;-77
2021/06/21 08:11:38;;;;;;;15.60;6.57;;;;;;;22.70;56.61;93683.84;5109963;28;20492;-76
2021/06/21 08:14:04;;;;;;;11.35;6.25;;;;;;;22.64;56.73;93680.75;5108605;28;20131;-77
2021/06/21 08:16:29;;;;;;;15.35;5.68;;;;;;;22.73;56.86;93685.75;5093582;28;20070;-77
2021/06/21 08:18:55;;;;;;;12.98;5.53;;;;;;;22.80;56.93;93685.75;5093699;28;20088;-76
2021/06/21 08:21:21;;;;;;;22.48;5.07;;;;;;;22.91;56.02;93685.69;5090696;28;20107;-76
2021/06/21 08:23:46;;;;;;;7.68;4.18;;;;;;;23.06;55.40;93689.94;5109433;28;20038;-76
2021/06/21 08:26:12;;;;;;;11.20;4.70;;;;;;;23.22;55.37;93681.28;5108378;28;20035;-74
2021/06/21 08:28:38;;;;;;;8.80;4.40;;;;;;;23.38;54.29;93675.34;5099641;28;20119;-76
2021/06/21 08:31:03;;;;;;;8.80;4.93;;;;;;;23.45;54.06;93678.03;5088548;28;20471;-75
2021/06/21 08:33:29;;;;;;;7.60;4.05;;;;;;;23.55;54.06;93681.81;5089425;28;20035;-76
2021/06/21 08:35:55;;;;;;;8.25;4.88;;;;;;;23.68;54.37;93682.13;5109215;28;20020;-76
2021/06/21 08:38:20;;;;;;;11.60;4.70;;;;;;;23.78;52.99;93673.16;5112191;28;20020;-76
2021/06/21 08:40:46;;;;;;;9.15;4.25;;;;;;;23.90;52.96;93680.81;5111778;28;20071;-74
2021/06/21 08:43:12;;;;;;;9.48;4.28;;;;;;;23.93;52.60;93665.63;5099778;28;20398;-74
2021/06/21 08:45:38;;;;;;;19.60;4.43;;;;;;;24.05;52.41;93673.28;5092691;28;20391;-75
2021/06/21 08:48:09;;;;;;;10.82;4.05;;;;;;;24.14;52.70;93676.31;5092527;28;20022;-75
2021/06/21 08:50:36;;;;;;;19.10;3.80;;;;;;;24.26;52.32;93669.56;5090923;28;20499;-76
2021/06/21 08:53:01;;;;;;;19.17;4.50;;;;;;;24.39;52.04;93675.28;5099737;28;20496;-74
2021/06/21 08:55:27;;;;;;;5.50;3.80;;;;;;;24.46;51.21;93672.47;5111204;28;20106;-75
2021/06/21 08:57:53;;;;;;;8.55;4.20;;;;;;;24.38;51.30;93679.19;5099261;28;20024;-76
2021/06/21 09:00:20;;;;;;;8.50;3.92;;;;;;;24.48;51.38;93675.56;5094202;28;20030;-75
2021/06/21 09:02:50;;;;;;;6.75;3.72;;;;;;;24.55;48.68;93678.25;5112219;28;20039;-75
2021/06/21 09:05:16;;;;;;;8.30;3.40;;;;;;;24.49;49.62;93676.34;5091300;28;20118;-75
2021/06/21 09:07:44;;;;;;;5.82;3.47;;;;;;;24.51;49.76;93668.56;5106370;28;20020;-75
2021/06/21 09:10:28;;;;;;;5.18;3.15;;;;;;;24.59;49.85;93668.09;5109360;28;20029;-75
2021/06/21 09:13:10;;;;;;;8.07;3.45;;;;;;;24.75;49.46;93664.78;5106347;28;20039;-74
2021/06/21 09:15:39;;;;;;;9.90;3.45;;;;;;;24.90;49.50;93672.78;5108323;28;20032;-74
2021/06/21 09:18:28;;;;;;;11.02;3.38;;;;;;;25.07;47.63;93671.00;5091177;28;20060;-75
2021/06/21 09:21:32;;;;;;;5.10;3.15;;;;;;;25.21;45.41;93673.56;5091795;28;20483;-74
2021/06/21 09:24:01;;;;;;;14.85;3.95;;;;;;;25.25;45.81;93674.28;5090290;28;20032;-74
2021/06/21 09:26:29;;;;;;;10.73;3.88;;;;;;;25.28;45.85;93669.94;5099721;28;20034;-73
2021/06/21 09:28:57;;;;;;;8.43;3.22;;;;;;;25.27;45.30;93674.63;5110648;28;20118;-73
2021/06/21 09:31:25;;;;;;;4.55;2.17;;;;;;;25.21;42.55;93677.03;5110527;28;20061;-73
2021/06/21 09:33:51;;;;;;;6.53;1.88;;;;;;;25.13;43.23;93669.34;5110393;28;20030;-73
2021/06/21 09:36:33;;;;;;;3.67;2.08;;;;;;;25.15;43.28;93667.75;5110368;28;20057;-73
2021/06/21 09:39:22;;;;;;;3.75;2.38;;;;;;;25.17;41.35;93664.63;5111724;28;20031;-73
2021/06/21 09:42:12;;;;;;;7.35;2.38;;;;;;;25.26;42.96;93673.09;5111162;28;20088;-74
2021/06/21 09:44:47;;;;;;;5.90;2.97;;;;;;;25.36;42.41;93677.63;5110444;28;20051;-74
2021/06/21 09:47:29;;;;;;;6.20;2.38;;;;;;;25.47;43.00;93666.56;5110390;28;20031;-74
2021/06/21 09:50:09;;;;;;;9.75;2.70;;;;;;;25.55;42.90;93667.22;5111292;28;20019;-74
2021/06/21 09:52:41;;;;;;;6.90;2.92;;;;;;;25.59;44.52;93662.47;5107139;28;20040;-74
2021/06/21 09:55:29;;;;;;;4.55;1.95;;;;;;;25.62;41.33;93661.63;5109547;28;20340;-73
2021/06/21 09:58:08;;;;;;;3.70;2.40;;;;;;;25.70;42.85;93663.06;5103878;28;20020;-74
2021/06/21 10:00:42;;;;;;;6.40;2.80;;;;;;;25.75;41.82;93653.66;5096755;28;20031;-73
2021/06/21 10:03:09;;;;;;;7.70;2.63;;;;;;;25.76;41.84;93655.19;5111044;28;20031;-73
2021/06/21 10:05:39;;;;;;;6.28;2.65;;;;;;;25.88;42.78;93662.78;5109842;28;20089;-74
2021/06/21 10:08:04;;;;;;;5.60;2.60;;;;;;;25.89;42.26;93655.34;5109901;28;20105;-74
2021/06/21 10:10:32;;;;;;;5.50;2.03;;;;;;;25.80;39.96;93659.41;5102686;28;20056;-73
2021/06/21 10:12:57;;;;;;;4.00;2.30;;;;;;;25.85;40.30;93651.91;5102493;28;20062;-73
2021/06/21 10:15:23;;;;;;;5.70;2.47;;;;;;;25.93;40.72;93647.91;5109602;28;20118;-74
2021/06/21 10:17:48;;;;;;;5.32;2.25;;;;;;;25.98;40.24;93647.44;5095202;28;20028;-73
2021/06/21 10:20:14;;;;;;;5.10;2.92;;;;;;;26.03;40.78;93652.41;5089412;28;20023;-75
2021/06/21 10:22:40;;;;;;;7.93;2.42;;;;;;;26.10;42.63;93655.03;5090471;28;20520;-74
2021/06/21 10:25:07;;;;;;;3.40;2.03;;;;;;;26.01;41.78;93652.84;5092095;28;20024;-74
2021/06/21 10:27:33;;;;;;;4.07;2.35;;;;;;;25.99;41.45;93647.03;5096740;28;20061;-75
2021/06/21 10:29:59;;;;;;;4.63;2.10;;;;;;;26.05;41.18;93646.53;5104727;28;20491;-75
2021/06/21 10:32:28;;;;;;;3.83;2.33;;;;;;;26.08;40.93;93664.84;5093769;28;20028;-74
2021/06/21 10:34:55;;;;;;;5.75;2.08;;;;;;;26.05;41.28;93660.97;5100497;28;20031;-75
2021/06/21 10:37:25;;;;;;;4.38;2.50;;;;;;;26.06;41.28;93661.75;5094469;28;20031;-75
2021/06/21 10:40:04;;;;;;;6.97;1.98;;;;;;;26.06;40.19;93657.06;5103454;28;20023;-75
2021/06/21 10:42:37;;;;;;;5.25;2.03;;;;;;;26.01;40.15;93654.78;5109094;28;20114;-75
2021/06/21 10:45:07;;;;;;;4.20;2.00;;;;;;;26.07;39.58;93653.13;5101689;28;20020;-75
2021/06/21 10:47:38;;;;;;;10.10;2.22;;;;;;;26.17;40.11;93643.19;5106155;28;20102;-76
2021/06/21 10:50:16;;;;;;;2.80;1.77;;;;;;;26.29;39.38;93641.81;5117951;27;20035;-76
2021/06/21 10:52:53;;;;;;;2.85;1.90;;;;;;;26.37;39.26;93645.97;5108902;28;20571;-76
2021/06/21 10:55:26;;;;;;;3.17;1.80;;;;;;;26.51;37.70;93644.91;5104609;28;20036;-77
2021/06/21 10:57:52;;;;;;;3.58;2.13;;;;;;;26.54;35.66;93642.13;5095533;28;20688;-75
2021/06/21 11:00:30;;;;;;;3.85;1.65;;;;;;;26.57;36.48;93629.56;5103372;28;20052;-76
2021/06/21 11:02:56;;;;;;;8.05;2.10;;;;;;;26.69;37.75;93626.22;5101690;28;20039;-76
2021/06/21 11:05:33;;;;;;;6.30;1.98;;;;;;;26.86;36.74;93618.84;5101386;28;20020;-75
2021/06/21 11:08:20;;;;;;;3.08;1.80;;;;;;;26.95;37.39;93621.78;5095042;28;20124;-76
2021/06/21 11:10:51;;;;;;;6.80;1.65;;;;;;;27.05;37.65;93625.47;5092673;28;20033;-75
2021/06/21 11:13:35;;;;;;;3.90;2.10;;;;;;;27.21;36.40;93625.50;5105110;28;20043;-75
2021/06/21 11:16:16;;;;;;;5.35;2.17;;;;;;;27.25;35.52;93636.38;5105685;28;20027;-75
2021/06/21 11:18:49;;;;;;;2.80;1.55;;;;;;;27.32;36.33;93625.28;5103144;28;20024;-76
2021/06/21 11:21:20;;;;;;;6.05;2.10;;;;;;;27.39;35.22;93619.63;5104393;28;20019;-76
2021/06/21 11:23:48;;;;;;;5.47;1.73;;;;;;;27.49;34.99;93614.34;5098741;28;20027;-76
2021/06/21 11:26:14;;;;;;;2.50;1.45;;;;;;;27.65;36.13;93610.84;5096671;28;20032;-76
2021/06/21 11:28:51;;;;;;;7.75;2.03;;;;;;;27.79;36.46;93615.97;5087901;28;20050;-76
2021/06/21 11:31:26;;;;;;;6.82;2.30;;;;;;;27.78;32.38;93615.19;5098088;28;20111;-76
2021/06/21 11:34:11;;;;;;;8.23;1.70;;;;;;;27.78;35.02;93620.69;5100902;28;20031;-76
2021/06/21 11:36:48;;;;;;;2.97;1.80;;;;;;;27.73;33.81;93612.97;5095166;28;20032;-76